sensor_id;sensor_type;location;lat;lon;timestamp;temperature;humidity
72206;DHT22;60111;48.286;7.812;2022-10-30T00:01:02;14.20;99.90
72206;DHT22;60111;48.286;7.812;2022-10-30T00:03:34;14.20;99.90
72206;DHT22;60111;48.286;7.812;2022-10-30T00:06:07;14.20;99.90
72206;DHT22;60111;48.286;7.812;2022-10-30T00:08:41;14.20;99.90
72206;DHT22;60111;48.286;7.812;2022-10-30T00:11:14;14.10;99.90
72206;DHT22;60111;48.286;7.812;2022-10-30T00:13:46;14.10;99.90
72206;DHT22;60111;48.286;7.812;2022-10-30T00:16:19;14.10;99.90
72206;DHT22;60111;48.286;7.812;2022-10-30T00:18:55;14.10;99.90
72206;DHT22;60111;48.286;7.812;2022-10-30T00:21:26;14.10;99.90
72206;DHT22;60111;48.286;7.812;2022-10-30T00:23:58;14.10;99.90
72206;DHT22;60111;48.286;7.812;2022-10-30T00:26:31;14.00;99.90
72206;DHT22;60111;48.286;7.812;2022-10-30T00:29:04;14.10;99.90
72206;DHT22;60111;48.286;7.812;2022-10-30T00:31:37;14.10;99.90
72206;DHT22;60111;48.286;7.812;2022-10-30T00:34:09;14.10;99.90
72206;DHT22;60111;48.286;7.812;2022-10-30T00:36:42;14.10;99.90
72206;DHT22;60111;48.286;7.812;2022-10-30T00:39:15;14.30;99.90
72206;DHT22;60111;48.286;7.812;2022-10-30T00:41:47;14.20;99.90
72206;DHT22;60111;48.286;7.812;2022-10-30T00:44:49;14.20;99.90
72206;DHT22;60111;48.286;7.812;2022-10-30T00:47:34;14.10;99.90
72206;DHT22;60111;48.286;7.812;2022-10-30T00:50:16;14.10;99.90
72206;DHT22;60111;48.286;7.812;2022-10-30T00:52:52;14.00;99.90
72206;DHT22;60111;48.286;7.812;2022-10-30T00:55:34;13.90;99.90
72206;DHT22;60111;48.286;7.812;2022-10-30T00:58:05;13.90;99.90
72206;DHT22;60111;48.286;7.812;2022-10-30T01:00:41;13.80;99.90
72206;DHT22;60111;48.286;7.812;2022-10-30T01:03:15;13.70;99.90
72206;DHT22;60111;48.286;7.812;2022-10-30T01:05:51;13.60;99.90
72206;DHT22;60111;48.286;7.812;2022-10-30T01:08:24;13.50;99.90
72206;DHT22;60111;48.286;7.812;2022-10-30T01:10:57;13.40;99.90
72206;DHT22;60111;48.286;7.812;2022-10-30T01:13:32;13.50;99.90
72206;DHT22;60111;48.286;7.812;2022-10-30T01:24:51;13.10;99.90
72206;DHT22;60111;48.286;7.812;2022-10-30T01:27:36;13.10;99.90
72206;DHT22;60111;48.286;7.812;2022-10-30T01:32:52;12.90;99.90
72206;DHT22;60111;48.286;7.812;2022-10-30T01:38:15;12.80;99.90
72206;DHT22;60111;48.286;7.812;2022-10-30T01:40:48;12.80;99.90
72206;DHT22;60111;48.286;7.812;2022-10-30T01:43:20;12.70;99.90
72206;DHT22;60111;48.286;7.812;2022-10-30T01:59:48;12.50;99.90
72206;DHT22;60111;48.286;7.812;2022-10-30T02:02:12;12.40;99.90
72206;DHT22;60111;48.286;7.812;2022-10-30T02:04:45;12.30;99.90
72206;DHT22;60111;48.286;7.812;2022-10-30T02:07:18;12.30;99.90
72206;DHT22;60111;48.286;7.812;2022-10-30T02:09:52;12.30;99.90
72206;DHT22;60111;48.286;7.812;2022-10-30T02:12:28;12.30;99.90
72206;DHT22;60111;48.286;7.812;2022-10-30T02:15:01;12.30;99.90
72206;DHT22;60111;48.286;7.812;2022-10-30T02:17:34;12.20;99.90
72206;DHT22;60111;48.286;7.812;2022-10-30T02:20:29;12.20;99.90
72206;DHT22;60111;48.286;7.812;2022-10-30T02:22:41;12.20;99.90
72206;DHT22;60111;48.286;7.812;2022-10-30T02:25:14;12.10;99.90
72206;DHT22;60111;48.286;7.812;2022-10-30T02:27:47;12.10;99.90
72206;DHT22;60111;48.286;7.812;2022-10-30T02:30:19;12.20;99.90
72206;DHT22;60111;48.286;7.812;2022-10-30T02:32:52;12.10;99.90
72206;DHT22;60111;48.286;7.812;2022-10-30T02:35:25;12.10;99.90
72206;DHT22;60111;48.286;7.812;2022-10-30T02:37:57;12.00;99.90
72206;DHT22;60111;48.286;7.812;2022-10-30T02:40:30;12.00;99.90
72206;DHT22;60111;48.286;7.812;2022-10-30T02:43:03;12.00;99.90
72206;DHT22;60111;48.286;7.812;2022-10-30T02:45:35;12.00;99.90
72206;DHT22;60111;48.286;7.812;2022-10-30T02:48:08;12.00;99.90
72206;DHT22;60111;48.286;7.812;2022-10-30T02:50:40;11.90;99.90
72206;DHT22;60111;48.286;7.812;2022-10-30T02:53:13;11.90;99.90
72206;DHT22;60111;48.286;7.812;2022-10-30T02:55:45;11.90;99.90
72206;DHT22;60111;48.286;7.812;2022-10-30T02:58:18;11.90;99.90
72206;DHT22;60111;48.286;7.812;2022-10-30T03:00:51;11.80;99.90
72206;DHT22;60111;48.286;7.812;2022-10-30T03:03:23;11.80;99.90
72206;DHT22;60111;48.286;7.812;2022-10-30T03:06:00;11.80;99.90
72206;DHT22;60111;48.286;7.812;2022-10-30T03:08:33;11.80;99.90
72206;DHT22;60111;48.286;7.812;2022-10-30T03:11:12;11.80;99.90
72206;DHT22;60111;48.286;7.812;2022-10-30T03:13:47;11.80;99.90
72206;DHT22;60111;48.286;7.812;2022-10-30T03:16:22;11.80;99.90
72206;DHT22;60111;48.286;7.812;2022-10-30T03:18:55;11.80;99.90
72206;DHT22;60111;48.286;7.812;2022-10-30T03:21:28;11.80;99.90
72206;DHT22;60111;48.286;7.812;2022-10-30T03:24:01;11.70;99.90
72206;DHT22;60111;48.286;7.812;2022-10-30T03:26:34;11.70;99.90
72206;DHT22;60111;48.286;7.812;2022-10-30T03:29:07;11.70;99.90
72206;DHT22;60111;48.286;7.812;2022-10-30T03:31:40;11.70;99.90
72206;DHT22;60111;48.286;7.812;2022-10-30T03:34:12;11.70;99.90
72206;DHT22;60111;48.286;7.812;2022-10-30T03:36:45;11.60;99.90
72206;DHT22;60111;48.286;7.812;2022-10-30T03:39:17;11.60;99.90
72206;DHT22;60111;48.286;7.812;2022-10-30T03:41:50;11.60;99.90
72206;DHT22;60111;48.286;7.812;2022-10-30T03:44:23;11.50;99.90
72206;DHT22;60111;48.286;7.812;2022-10-30T03:46:55;11.60;99.90
72206;DHT22;60111;48.286;7.812;2022-10-30T03:49:29;11.60;99.90
72206;DHT22;60111;48.286;7.812;2022-10-30T03:52:04;11.60;99.90
72206;DHT22;60111;48.286;7.812;2022-10-30T03:54:37;11.60;99.90
72206;DHT22;60111;48.286;7.812;2022-10-30T03:57:10;11.50;99.90
72206;DHT22;60111;48.286;7.812;2022-10-30T03:59:42;11.50;99.90
72206;DHT22;60111;48.286;7.812;2022-10-30T04:02:15;11.50;99.90
72206;DHT22;60111;48.286;7.812;2022-10-30T04:04:47;11.50;99.90
72206;DHT22;60111;48.286;7.812;2022-10-30T04:07:20;11.50;99.90
72206;DHT22;60111;48.286;7.812;2022-10-30T04:09:53;11.50;99.90
72206;DHT22;60111;48.286;7.812;2022-10-30T04:12:25;11.50;99.90
72206;DHT22;60111;48.286;7.812;2022-10-30T04:14:58;11.50;99.90
72206;DHT22;60111;48.286;7.812;2022-10-30T04:17:30;11.50;99.90
72206;DHT22;60111;48.286;7.812;2022-10-30T04:20:04;11.50;99.90
72206;DHT22;60111;48.286;7.812;2022-10-30T04:22:37;11.50;99.90
72206;DHT22;60111;48.286;7.812;2022-10-30T04:25:10;11.50;99.90
72206;DHT22;60111;48.286;7.812;2022-10-30T04:27:43;11.40;99.90
72206;DHT22;60111;48.286;7.812;2022-10-30T04:30:16;11.40;99.90
72206;DHT22;60111;48.286;7.812;2022-10-30T04:32:57;11.40;99.90
72206;DHT22;60111;48.286;7.812;2022-10-30T04:35:28;11.40;99.90
72206;DHT22;60111;48.286;7.812;2022-10-30T04:38:02;11.40;99.90
72206;DHT22;60111;48.286;7.812;2022-10-30T04:40:38;11.40;99.90
72206;DHT22;60111;48.286;7.812;2022-10-30T04:43:11;11.40;99.90
72206;DHT22;60111;48.286;7.812;2022-10-30T04:45:44;11.40;99.90
72206;DHT22;60111;48.286;7.812;2022-10-30T04:48:17;11.50;99.90
72206;DHT22;60111;48.286;7.812;2022-10-30T04:50:50;11.40;99.90
72206;DHT22;60111;48.286;7.812;2022-10-30T04:53:22;11.30;99.90
72206;DHT22;60111;48.286;7.812;2022-10-30T04:55:56;11.30;99.90
72206;DHT22;60111;48.286;7.812;2022-10-30T04:58:28;11.30;99.90
72206;DHT22;60111;48.286;7.812;2022-10-30T05:01:02;11.20;99.90
72206;DHT22;60111;48.286;7.812;2022-10-30T05:03:35;11.20;99.90
72206;DHT22;60111;48.286;7.812;2022-10-30T05:06:25;11.20;99.90
72206;DHT22;60111;48.286;7.812;2022-10-30T05:08:58;11.20;99.90
72206;DHT22;60111;48.286;7.812;2022-10-30T05:11:31;11.10;99.90
72206;DHT22;60111;48.286;7.812;2022-10-30T05:14:03;11.10;99.90
72206;DHT22;60111;48.286;7.812;2022-10-30T05:16:36;11.10;99.90
72206;DHT22;60111;48.286;7.812;2022-10-30T05:19:08;11.10;99.90
72206;DHT22;60111;48.286;7.812;2022-10-30T05:21:41;11.10;99.90
72206;DHT22;60111;48.286;7.812;2022-10-30T05:24:14;11.20;99.90
72206;DHT22;60111;48.286;7.812;2022-10-30T05:26:46;11.20;99.90
72206;DHT22;60111;48.286;7.812;2022-10-30T05:29:19;11.20;99.90
72206;DHT22;60111;48.286;7.812;2022-10-30T05:31:51;11.20;99.90
72206;DHT22;60111;48.286;7.812;2022-10-30T05:34:24;11.20;99.90
72206;DHT22;60111;48.286;7.812;2022-10-30T05:36:56;11.10;99.90
72206;DHT22;60111;48.286;7.812;2022-10-30T05:39:29;11.10;99.90
72206;DHT22;60111;48.286;7.812;2022-10-30T05:42:02;11.00;99.90
72206;DHT22;60111;48.286;7.812;2022-10-30T05:44:34;11.00;99.90
72206;DHT22;60111;48.286;7.812;2022-10-30T05:47:09;11.00;99.90
72206;DHT22;60111;48.286;7.812;2022-10-30T05:49:42;11.00;99.90
72206;DHT22;60111;48.286;7.812;2022-10-30T05:52:15;11.00;99.90
72206;DHT22;60111;48.286;7.812;2022-10-30T05:54:49;10.90;99.90
72206;DHT22;60111;48.286;7.812;2022-10-30T05:57:21;10.90;99.90
72206;DHT22;60111;48.286;7.812;2022-10-30T05:59:54;10.90;99.90
72206;DHT22;60111;48.286;7.812;2022-10-30T06:02:27;11.00;99.90
72206;DHT22;60111;48.286;7.812;2022-10-30T06:05:01;11.00;99.90
72206;DHT22;60111;48.286;7.812;2022-10-30T06:07:34;11.00;99.90
72206;DHT22;60111;48.286;7.812;2022-10-30T06:10:07;11.00;99.90
72206;DHT22;60111;48.286;7.812;2022-10-30T06:12:40;11.00;99.90
72206;DHT22;60111;48.286;7.812;2022-10-30T06:15:13;11.10;99.90
72206;DHT22;60111;48.286;7.812;2022-10-30T06:17:45;11.20;99.90
72206;DHT22;60111;48.286;7.812;2022-10-30T06:20:20;11.20;99.90
72206;DHT22;60111;48.286;7.812;2022-10-30T06:25:35;11.10;99.90
72206;DHT22;60111;48.286;7.812;2022-10-30T06:28:10;11.10;99.90
72206;DHT22;60111;48.286;7.812;2022-10-30T06:30:48;11.10;99.90
72206;DHT22;60111;48.286;7.812;2022-10-30T06:33:18;11.00;99.90
72206;DHT22;60111;48.286;7.812;2022-10-30T06:35:50;11.00;99.90
72206;DHT22;60111;48.286;7.812;2022-10-30T06:38:23;11.00;99.90
72206;DHT22;60111;48.286;7.812;2022-10-30T06:40:56;11.00;99.90
72206;DHT22;60111;48.286;7.812;2022-10-30T06:43:28;11.00;99.90
72206;DHT22;60111;48.286;7.812;2022-10-30T06:46:01;11.00;99.90
72206;DHT22;60111;48.286;7.812;2022-10-30T06:48:34;11.00;99.90
72206;DHT22;60111;48.286;7.812;2022-10-30T06:51:06;11.10;99.90
72206;DHT22;60111;48.286;7.812;2022-10-30T06:53:39;11.00;99.90
72206;DHT22;60111;48.286;7.812;2022-10-30T06:56:11;11.00;99.90
72206;DHT22;60111;48.286;7.812;2022-10-30T06:58:44;11.10;99.90
72206;DHT22;60111;48.286;7.812;2022-10-30T07:01:17;11.10;99.90
72206;DHT22;60111;48.286;7.812;2022-10-30T07:03:49;11.10;99.90
72206;DHT22;60111;48.286;7.812;2022-10-30T07:06:22;11.10;99.90
72206;DHT22;60111;48.286;7.812;2022-10-30T07:08:54;11.10;99.90
72206;DHT22;60111;48.286;7.812;2022-10-30T07:11:27;11.20;99.90
72206;DHT22;60111;48.286;7.812;2022-10-30T07:14:00;11.20;99.90
72206;DHT22;60111;48.286;7.812;2022-10-30T07:16:32;11.20;99.90
72206;DHT22;60111;48.286;7.812;2022-10-30T07:19:05;11.30;99.90
72206;DHT22;60111;48.286;7.812;2022-10-30T07:21:38;11.30;99.90
72206;DHT22;60111;48.286;7.812;2022-10-30T07:24:11;11.40;99.90
72206;DHT22;60111;48.286;7.812;2022-10-30T07:26:43;11.50;99.90
72206;DHT22;60111;48.286;7.812;2022-10-30T07:29:16;11.70;99.90
72206;DHT22;60111;48.286;7.812;2022-10-30T07:31:48;11.70;99.90
72206;DHT22;60111;48.286;7.812;2022-10-30T07:34:21;11.80;99.90
72206;DHT22;60111;48.286;7.812;2022-10-30T07:36:53;11.90;99.90
72206;DHT22;60111;48.286;7.812;2022-10-30T07:39:26;12.00;99.90
72206;DHT22;60111;48.286;7.812;2022-10-30T07:41:58;12.10;99.90
72206;DHT22;60111;48.286;7.812;2022-10-30T07:44:31;12.20;99.90
72206;DHT22;60111;48.286;7.812;2022-10-30T07:47:04;12.30;99.90
72206;DHT22;60111;48.286;7.812;2022-10-30T07:49:39;12.40;99.90
72206;DHT22;60111;48.286;7.812;2022-10-30T07:52:12;12.50;99.90
72206;DHT22;60111;48.286;7.812;2022-10-30T07:54:44;12.60;99.90
72206;DHT22;60111;48.286;7.812;2022-10-30T07:57:17;12.70;99.90
72206;DHT22;60111;48.286;7.812;2022-10-30T07:59:49;12.80;99.90
72206;DHT22;60111;48.286;7.812;2022-10-30T08:02:22;12.90;99.90
72206;DHT22;60111;48.286;7.812;2022-10-30T08:04:54;13.00;99.90
72206;DHT22;60111;48.286;7.812;2022-10-30T08:07:31;13.20;99.90
72206;DHT22;60111;48.286;7.812;2022-10-30T08:10:05;13.30;99.90
72206;DHT22;60111;48.286;7.812;2022-10-30T08:12:38;13.50;99.90
72206;DHT22;60111;48.286;7.812;2022-10-30T08:15:13;13.70;99.90
72206;DHT22;60111;48.286;7.812;2022-10-30T08:17:47;13.90;99.90
72206;DHT22;60111;48.286;7.812;2022-10-30T08:20:22;14.10;99.90
72206;DHT22;60111;48.286;7.812;2022-10-30T08:22:56;14.40;99.90
72206;DHT22;60111;48.286;7.812;2022-10-30T08:25:30;14.60;99.90
72206;DHT22;60111;48.286;7.812;2022-10-30T08:28:05;14.80;99.90
72206;DHT22;60111;48.286;7.812;2022-10-30T08:30:38;15.00;99.90
72206;DHT22;60111;48.286;7.812;2022-10-30T08:33:12;15.20;99.90
72206;DHT22;60111;48.286;7.812;2022-10-30T08:35:49;15.20;99.90
72206;DHT22;60111;48.286;7.812;2022-10-30T08:38:22;15.40;99.90
72206;DHT22;60111;48.286;7.812;2022-10-30T08:40:55;15.60;99.90
72206;DHT22;60111;48.286;7.812;2022-10-30T08:43:28;15.90;99.90
72206;DHT22;60111;48.286;7.812;2022-10-30T08:46:01;16.00;99.90
72206;DHT22;60111;48.286;7.812;2022-10-30T08:48:33;16.20;99.90
72206;DHT22;60111;48.286;7.812;2022-10-30T08:51:06;16.30;99.90
72206;DHT22;60111;48.286;7.812;2022-10-30T08:53:40;16.40;99.90
72206;DHT22;60111;48.286;7.812;2022-10-30T08:56:15;16.60;99.90
72206;DHT22;60111;48.286;7.812;2022-10-30T08:58:49;16.60;99.90
72206;DHT22;60111;48.286;7.812;2022-10-30T09:01:22;16.80;99.90
72206;DHT22;60111;48.286;7.812;2022-10-30T09:03:54;17.00;99.90
72206;DHT22;60111;48.286;7.812;2022-10-30T09:06:30;17.10;99.90
72206;DHT22;60111;48.286;7.812;2022-10-30T09:09:02;17.20;99.90
72206;DHT22;60111;48.286;7.812;2022-10-30T09:11:34;17.40;99.90
72206;DHT22;60111;48.286;7.812;2022-10-30T09:14:11;17.60;99.90
72206;DHT22;60111;48.286;7.812;2022-10-30T09:16:43;17.70;99.90
72206;DHT22;60111;48.286;7.812;2022-10-30T09:19:16;17.90;99.90
72206;DHT22;60111;48.286;7.812;2022-10-30T09:21:49;18.00;99.90
72206;DHT22;60111;48.286;7.812;2022-10-30T09:24:21;18.10;99.90
72206;DHT22;60111;48.286;7.812;2022-10-30T09:26:54;18.10;99.90
72206;DHT22;60111;48.286;7.812;2022-10-30T09:29:27;18.10;99.90
72206;DHT22;60111;48.286;7.812;2022-10-30T09:32:02;18.10;99.90
72206;DHT22;60111;48.286;7.812;2022-10-30T09:34:36;18.10;99.90
72206;DHT22;60111;48.286;7.812;2022-10-30T09:37:10;18.10;99.90
72206;DHT22;60111;48.286;7.812;2022-10-30T09:39:42;18.10;99.90
72206;DHT22;60111;48.286;7.812;2022-10-30T09:45:22;18.30;99.90
72206;DHT22;60111;48.286;7.812;2022-10-30T09:48:21;18.40;99.90
72206;DHT22;60111;48.286;7.812;2022-10-30T09:59:07;18.60;99.90
72206;DHT22;60111;48.286;7.812;2022-10-30T10:01:53;18.60;99.90
72206;DHT22;60111;48.286;7.812;2022-10-30T10:04:28;18.60;99.90
72206;DHT22;60111;48.286;7.812;2022-10-30T10:07:04;18.70;99.90
72206;DHT22;60111;48.286;7.812;2022-10-30T10:09:38;18.70;99.90
72206;DHT22;60111;48.286;7.812;2022-10-30T10:15:09;18.90;99.90
72206;DHT22;60111;48.286;7.812;2022-10-30T10:17:42;18.90;99.90
72206;DHT22;60111;48.286;7.812;2022-10-30T10:20:26;19.10;99.90
72206;DHT22;60111;48.286;7.812;2022-10-30T10:23:00;19.20;99.90
72206;DHT22;60111;48.286;7.812;2022-10-30T10:25:34;19.20;99.90
72206;DHT22;60111;48.286;7.812;2022-10-30T10:28:31;19.20;99.90
72206;DHT22;60111;48.286;7.812;2022-10-30T10:31:04;19.30;99.90
72206;DHT22;60111;48.286;7.812;2022-10-30T10:33:45;19.40;99.90
72206;DHT22;60111;48.286;7.812;2022-10-30T10:39:23;19.80;99.90
72206;DHT22;60111;48.286;7.812;2022-10-30T10:45:15;20.10;99.90
72206;DHT22;60111;48.286;7.812;2022-10-30T10:54:12;20.50;99.90
72206;DHT22;60111;48.286;7.812;2022-10-30T10:55:59;20.60;99.90
72206;DHT22;60111;48.286;7.812;2022-10-30T10:58:43;20.70;99.90
72206;DHT22;60111;48.286;7.812;2022-10-30T11:01:21;20.80;99.90
72206;DHT22;60111;48.286;7.812;2022-10-30T11:04:08;20.70;99.90
72206;DHT22;60111;48.286;7.812;2022-10-30T11:06:41;20.80;99.90
72206;DHT22;60111;48.286;7.812;2022-10-30T11:09:22;20.90;99.90
72206;DHT22;60111;48.286;7.812;2022-10-30T11:11:55;20.90;99.90
72206;DHT22;60111;48.286;7.812;2022-10-30T11:14:28;21.00;99.80
72206;DHT22;60111;48.286;7.812;2022-10-30T11:17:26;21.00;99.80
72206;DHT22;60111;48.286;7.812;2022-10-30T11:20:00;21.00;99.90
72206;DHT22;60111;48.286;7.812;2022-10-30T11:22:37;21.10;99.90
72206;DHT22;60111;48.286;7.812;2022-10-30T11:25:26;21.30;99.20
72206;DHT22;60111;48.286;7.812;2022-10-30T11:28:02;21.20;99.60
72206;DHT22;60111;48.286;7.812;2022-10-30T11:30:34;21.30;99.90
72206;DHT22;60111;48.286;7.812;2022-10-30T11:33:21;21.30;99.90
72206;DHT22;60111;48.286;7.812;2022-10-30T11:35:54;21.30;99.90
72206;DHT22;60111;48.286;7.812;2022-10-30T11:38:27;21.20;99.90
72206;DHT22;60111;48.286;7.812;2022-10-30T11:41:01;21.30;99.90
72206;DHT22;60111;48.286;7.812;2022-10-30T11:43:33;21.30;99.90
72206;DHT22;60111;48.286;7.812;2022-10-30T11:46:08;21.20;99.90
72206;DHT22;60111;48.286;7.812;2022-10-30T11:48:46;21.40;99.90
72206;DHT22;60111;48.286;7.812;2022-10-30T11:51:36;21.40;99.90
72206;DHT22;60111;48.286;7.812;2022-10-30T11:54:14;21.50;99.90
72206;DHT22;60111;48.286;7.812;2022-10-30T11:56:48;21.50;99.90
72206;DHT22;60111;48.286;7.812;2022-10-30T11:59:22;21.60;99.90
72206;DHT22;60111;48.286;7.812;2022-10-30T12:05:01;21.80;99.70
72206;DHT22;60111;48.286;7.812;2022-10-30T12:07:34;21.80;99.60
72206;DHT22;60111;48.286;7.812;2022-10-30T12:10:19;21.80;99.90
72206;DHT22;60111;48.286;7.812;2022-10-30T12:12:42;22.00;99.90
72206;DHT22;60111;48.286;7.812;2022-10-30T12:15:20;22.10;99.20
72206;DHT22;60111;48.286;7.812;2022-10-30T12:18:01;22.10;99.10
72206;DHT22;60111;48.286;7.812;2022-10-30T12:20:36;22.20;98.70
72206;DHT22;60111;48.286;7.812;2022-10-30T12:23:13;22.30;99.00
72206;DHT22;60111;48.286;7.812;2022-10-30T12:25:48;22.40;99.20
72206;DHT22;60111;48.286;7.812;2022-10-30T12:28:28;22.60;99.20
72206;DHT22;60111;48.286;7.812;2022-10-30T12:31:17;22.80;98.50
72206;DHT22;60111;48.286;7.812;2022-10-30T12:33:57;22.80;97.80
72206;DHT22;60111;48.286;7.812;2022-10-30T12:36:29;22.90;97.60
72206;DHT22;60111;48.286;7.812;2022-10-30T12:39:12;23.10;96.80
72206;DHT22;60111;48.286;7.812;2022-10-30T12:42:02;23.20;96.50
72206;DHT22;60111;48.286;7.812;2022-10-30T12:44:38;23.30;96.50
72206;DHT22;60111;48.286;7.812;2022-10-30T12:49:57;23.20;96.80
72206;DHT22;60111;48.286;7.812;2022-10-30T12:52:54;23.20;96.20
72206;DHT22;60111;48.286;7.812;2022-10-30T12:55:36;23.10;96.40
72206;DHT22;60111;48.286;7.812;2022-10-30T13:01:15;23.00;96.50
72206;DHT22;60111;48.286;7.812;2022-10-30T13:04:01;23.10;97.50
72206;DHT22;60111;48.286;7.812;2022-10-30T13:06:34;23.00;97.40
72206;DHT22;60111;48.286;7.812;2022-10-30T13:09:15;23.00;98.00
72206;DHT22;60111;48.286;7.812;2022-10-30T13:12:02;23.00;97.30
72206;DHT22;60111;48.286;7.812;2022-10-30T13:14:47;22.90;98.00
72206;DHT22;60111;48.286;7.812;2022-10-30T13:17:20;22.80;97.30
72206;DHT22;60111;48.286;7.812;2022-10-30T13:19:53;22.80;97.60
72206;DHT22;60111;48.286;7.812;2022-10-30T13:22:29;22.70;97.30
72206;DHT22;60111;48.286;7.812;2022-10-30T13:28:16;22.80;97.30
72206;DHT22;60111;48.286;7.812;2022-10-30T13:31:17;22.90;97.00
72206;DHT22;60111;48.286;7.812;2022-10-30T13:33:52;22.80;97.00
72206;DHT22;60111;48.286;7.812;2022-10-30T13:36:25;22.80;96.50
72206;DHT22;60111;48.286;7.812;2022-10-30T13:39:02;22.80;97.10
72206;DHT22;60111;48.286;7.812;2022-10-30T13:47:23;23.00;96.60
72206;DHT22;60111;48.286;7.812;2022-10-30T13:50:31;23.10;95.90
72206;DHT22;60111;48.286;7.812;2022-10-30T13:53:04;23.10;96.30
72206;DHT22;60111;48.286;7.812;2022-10-30T13:55:38;23.20;96.40
72206;DHT22;60111;48.286;7.812;2022-10-30T13:58:31;23.30;96.90
72206;DHT22;60111;48.286;7.812;2022-10-30T14:01:15;23.40;96.50
72206;DHT22;60111;48.286;7.812;2022-10-30T14:09:39;23.40;95.40
72206;DHT22;60111;48.286;7.812;2022-10-30T14:15:32;23.40;96.40
72206;DHT22;60111;48.286;7.812;2022-10-30T14:18:28;23.30;96.30
72206;DHT22;60111;48.286;7.812;2022-10-30T14:21:28;23.40;95.80
72206;DHT22;60111;48.286;7.812;2022-10-30T14:23:37;23.30;96.00
72206;DHT22;60111;48.286;7.812;2022-10-30T14:26:12;23.20;95.70
72206;DHT22;60111;48.286;7.812;2022-10-30T14:28:45;23.10;95.50
72206;DHT22;60111;48.286;7.812;2022-10-30T14:31:18;23.00;95.30
72206;DHT22;60111;48.286;7.812;2022-10-30T14:33:53;22.90;95.70
72206;DHT22;60111;48.286;7.812;2022-10-30T14:41:58;22.80;96.40
72206;DHT22;60111;48.286;7.812;2022-10-30T14:44:48;22.70;96.40
72206;DHT22;60111;48.286;7.812;2022-10-30T14:58:41;22.40;95.60
72206;DHT22;60111;48.286;7.812;2022-10-30T15:01:23;22.30;95.60
72206;DHT22;60111;48.286;7.812;2022-10-30T15:07:06;22.20;96.60
72206;DHT22;60111;48.286;7.812;2022-10-30T15:15:21;22.00;98.50
72206;DHT22;60111;48.286;7.812;2022-10-30T15:17:56;21.90;98.50
72206;DHT22;60111;48.286;7.812;2022-10-30T15:20:31;21.80;98.30
72206;DHT22;60111;48.286;7.812;2022-10-30T15:23:18;21.70;98.50
72206;DHT22;60111;48.286;7.812;2022-10-30T15:25:51;21.70;99.30
72206;DHT22;60111;48.286;7.812;2022-10-30T15:28:31;21.60;98.60
72206;DHT22;60111;48.286;7.812;2022-10-30T15:33:41;21.40;99.40
72206;DHT22;60111;48.286;7.812;2022-10-30T15:36:19;21.30;99.90
72206;DHT22;60111;48.286;7.812;2022-10-30T15:39:09;21.20;99.90
72206;DHT22;60111;48.286;7.812;2022-10-30T15:41:56;21.10;99.90
72206;DHT22;60111;48.286;7.812;2022-10-30T15:44:36;21.00;99.90
72206;DHT22;60111;48.286;7.812;2022-10-30T15:47:16;20.90;99.90
72206;DHT22;60111;48.286;7.812;2022-10-30T15:49:52;20.90;99.90
72206;DHT22;60111;48.286;7.812;2022-10-30T15:52:27;20.80;99.90
72206;DHT22;60111;48.286;7.812;2022-10-30T15:55:04;20.60;99.90
72206;DHT22;60111;48.286;7.812;2022-10-30T15:57:40;20.60;99.90
72206;DHT22;60111;48.286;7.812;2022-10-30T16:00:53;20.50;99.90
72206;DHT22;60111;48.286;7.812;2022-10-30T16:03:16;20.50;99.90
72206;DHT22;60111;48.286;7.812;2022-10-30T16:05:40;20.40;99.90
72206;DHT22;60111;48.286;7.812;2022-10-30T16:08:22;20.40;99.90
72206;DHT22;60111;48.286;7.812;2022-10-30T16:10:55;20.30;99.90
72206;DHT22;60111;48.286;7.812;2022-10-30T16:13:29;20.20;99.90
72206;DHT22;60111;48.286;7.812;2022-10-30T16:16:03;20.20;99.90
72206;DHT22;60111;48.286;7.812;2022-10-30T16:18:36;20.10;99.90
72206;DHT22;60111;48.286;7.812;2022-10-30T16:21:13;20.10;99.90
72206;DHT22;60111;48.286;7.812;2022-10-30T16:23:55;20.00;99.90
72206;DHT22;60111;48.286;7.812;2022-10-30T16:26:34;19.90;99.90
72206;DHT22;60111;48.286;7.812;2022-10-30T16:31:51;19.80;99.90
72206;DHT22;60111;48.286;7.812;2022-10-30T16:34:29;19.80;99.90
72206;DHT22;60111;48.286;7.812;2022-10-30T16:37:05;19.60;99.90
72206;DHT22;60111;48.286;7.812;2022-10-30T16:39:40;19.50;99.90
72206;DHT22;60111;48.286;7.812;2022-10-30T16:42:21;19.30;99.90
72206;DHT22;60111;48.286;7.812;2022-10-30T16:45:47;19.10;99.90
72206;DHT22;60111;48.286;7.812;2022-10-30T16:47:34;18.90;99.90
72206;DHT22;60111;48.286;7.812;2022-10-30T16:50:11;18.80;99.90
72206;DHT22;60111;48.286;7.812;2022-10-30T16:52:44;18.70;99.90
72206;DHT22;60111;48.286;7.812;2022-10-30T16:55:21;18.60;99.90
72206;DHT22;60111;48.286;7.812;2022-10-30T16:57:56;18.50;99.90
72206;DHT22;60111;48.286;7.812;2022-10-30T17:00:32;18.50;99.90
72206;DHT22;60111;48.286;7.812;2022-10-30T17:03:10;18.40;99.90
72206;DHT22;60111;48.286;7.812;2022-10-30T17:05:42;18.30;99.90
72206;DHT22;60111;48.286;7.812;2022-10-30T17:13:35;18.20;99.90
72206;DHT22;60111;48.286;7.812;2022-10-30T17:18:58;18.10;99.90
72206;DHT22;60111;48.286;7.812;2022-10-30T17:21:39;18.10;99.90
72206;DHT22;60111;48.286;7.812;2022-10-30T17:24:21;18.10;99.90
72206;DHT22;60111;48.286;7.812;2022-10-30T17:26:56;18.10;99.90
72206;DHT22;60111;48.286;7.812;2022-10-30T17:32:26;18.00;99.90
72206;DHT22;60111;48.286;7.812;2022-10-30T17:35:14;17.90;99.90
72206;DHT22;60111;48.286;7.812;2022-10-30T17:37:46;17.90;99.90
72206;DHT22;60111;48.286;7.812;2022-10-30T17:40:19;17.80;99.90
72206;DHT22;60111;48.286;7.812;2022-10-30T17:42:52;17.60;99.90
72206;DHT22;60111;48.286;7.812;2022-10-30T17:45:25;17.50;99.90
72206;DHT22;60111;48.286;7.812;2022-10-30T17:47:58;17.40;99.90
72206;DHT22;60111;48.286;7.812;2022-10-30T17:50:30;17.30;99.90
72206;DHT22;60111;48.286;7.812;2022-10-30T17:53:03;17.20;99.90
72206;DHT22;60111;48.286;7.812;2022-10-30T17:55:36;17.10;99.90
72206;DHT22;60111;48.286;7.812;2022-10-30T17:58:10;17.00;99.90
72206;DHT22;60111;48.286;7.812;2022-10-30T18:00:42;17.00;99.90
72206;DHT22;60111;48.286;7.812;2022-10-30T18:03:15;16.90;99.90
72206;DHT22;60111;48.286;7.812;2022-10-30T18:05:48;16.90;99.90
72206;DHT22;60111;48.286;7.812;2022-10-30T18:08:21;16.90;99.90
72206;DHT22;60111;48.286;7.812;2022-10-30T18:10:55;16.90;99.90
72206;DHT22;60111;48.286;7.812;2022-10-30T18:13:27;16.80;99.90
72206;DHT22;60111;48.286;7.812;2022-10-30T18:16:00;16.80;99.90
72206;DHT22;60111;48.286;7.812;2022-10-30T18:18:34;16.70;99.90
72206;DHT22;60111;48.286;7.812;2022-10-30T18:21:12;16.60;99.90
72206;DHT22;60111;48.286;7.812;2022-10-30T18:23:45;16.50;99.90
72206;DHT22;60111;48.286;7.812;2022-10-30T18:26:25;16.40;99.90